Time;durP1;ratioP1;P1;durP2;ratioP2;P2;SDS_P1;SDS_P2;PMS_P1;PMS_P2;Temp;Humidity;BMP_temperature;BMP_pressure;BME280_temperature;BME280_humidity;BME280_pressure;Samples;Min_cycle;Max_cycle;Signal;HPM_P1;HPM_P2
2022/07/22 00:00:35;;;;;;;1.10;1.10;;;;;;;;;;5035496;28;20297;-84
2022/07/22 00:03:05;;;;;;;1.75;1.05;;;;;;;;;;5035904;28;20286;-84
2022/07/22 00:05:32;;;;;;;1.40;1.30;;;;;;;;;;5035845;28;20238;-83
2022/07/22 00:08:00;;;;;;;1.10;1.00;;;;;;;;;;5035365;28;20293;-83
2022/07/22 00:10:27;;;;;;;1.30;1.20;;;;;;;;;;5035679;28;20293;-84
2022/07/22 00:12:55;;;;;;;1.00;1.00;;;;;;;;;;5035342;28;20302;-85
2022/07/22 00:15:23;;;;;;;0.88;0.73;;;;;;;;;;5035850;28;20210;-84
2022/07/22 00:17:51;;;;;;;0.95;0.95;;;;;;;;;;5033815;28;20266;-83
2022/07/22 00:20:20;;;;;;;0.88;0.88;;;;;;;;;;5035536;28;20293;-84
2022/07/22 00:22:48;;;;;;;0.70;0.70;;;;;;;;;;5035502;28;20233;-84
2022/07/22 00:25:15;;;;;;;0.77;0.77;;;;;;;;;;5035174;28;20662;-83
2022/07/22 00:27:43;;;;;;;0.85;0.85;;;;;;;;;;5034390;28;20202;-84
2022/07/22 00:30:12;;;;;;;0.90;0.90;;;;;;;;;;5035111;28;20317;-83
2022/07/22 00:32:39;;;;;;;0.70;0.70;;;;;;;;;;5034885;28;20289;-84
2022/07/22 00:35:08;;;;;;;0.90;0.90;;;;;;;;;;5034884;28;20313;-84
2022/07/22 00:37:37;;;;;;;0.50;0.50;;;;;;;;;;5034715;28;20248;-84
2022/07/22 00:40:07;;;;;;;0.80;0.80;;;;;;;;;;5034978;28;20270;-84
2022/07/22 00:42:34;;;;;;;0.90;0.90;;;;;;;;;;5035356;28;20235;-83
2022/07/22 00:45:02;;;;;;;0.80;0.80;;;;;;;;;;5034230;28;20206;-84
2022/07/22 00:47:30;;;;;;;0.82;0.82;;;;;;;;;;5034751;28;20281;-84
2022/07/22 00:49:58;;;;;;;0.60;0.60;;;;;;;;;;5034493;28;20305;-84
2022/07/22 00:52:26;;;;;;;0.50;0.50;;;;;;;;;;5034543;28;20637;-83
2022/07/22 00:54:57;;;;;;;0.60;0.60;;;;;;;;;;5034605;28;20301;-84
2022/07/22 00:57:25;;;;;;;0.70;0.70;;;;;;;;;;5034382;28;20285;-84
2022/07/22 00:59:52;;;;;;;0.73;0.73;;;;;;;;;;5034654;28;20726;-83
2022/07/22 01:02:20;;;;;;;0.80;0.80;;;;;;;;;;5034700;28;20281;-84
2022/07/22 01:04:47;;;;;;;0.73;0.73;;;;;;;;;;5034471;28;20210;-84
2022/07/22 01:07:15;;;;;;;0.70;0.70;;;;;;;;;;5034202;28;20226;-86
2022/07/22 01:09:44;;;;;;;0.70;0.70;;;;;;;;;;5034285;28;20665;-83
2022/07/22 01:12:14;;;;;;;0.80;0.80;;;;;;;;;;5034348;28;20294;-83
2022/07/22 01:14:41;;;;;;;0.60;0.60;;;;;;;;;;5034502;28;20202;-83
2022/07/22 01:17:09;;;;;;;0.52;0.52;;;;;;;;;;5033684;28;20245;-84
2022/07/22 01:19:37;;;;;;;0.95;0.90;;;;;;;;;;5034193;28;20294;-84
2022/07/22 01:22:07;;;;;;;0.70;0.70;;;;;;;;;;5034205;28;20206;-83
2022/07/22 01:24:35;;;;;;;0.60;0.60;;;;;;;;;;5034557;28;20286;-84
2022/07/22 01:27:03;;;;;;;0.93;0.93;;;;;;;;;;5033848;28;20258;-84
2022/07/22 01:29:31;;;;;;;0.70;0.70;;;;;;;;;;5035434;28;20656;-84
2022/07/22 01:31:59;;;;;;;0.70;0.70;;;;;;;;;;5037715;28;20198;-85
2022/07/22 01:34:27;;;;;;;0.65;0.65;;;;;;;;;;5037976;28;20737;-84
2022/07/22 01:36:54;;;;;;;0.85;0.85;;;;;;;;;;5037439;28;20218;-84
2022/07/22 01:39:23;;;;;;;0.98;0.95;;;;;;;;;;5037563;28;20285;-85
2022/07/22 01:41:51;;;;;;;1.10;1.10;;;;;;;;;;5037085;28;20245;-84
2022/07/22 01:44:18;;;;;;;1.17;1.08;;;;;;;;;;5037307;28;20753;-86
2022/07/22 01:46:46;;;;;;;0.80;0.80;;;;;;;;;;5037123;28;20308;-84
2022/07/22 01:49:14;;;;;;;0.93;0.93;;;;;;;;;;5036995;28;20769;-84
2022/07/22 01:51:42;;;;;;;0.52;0.52;;;;;;;;;;5036890;28;20295;-84
2022/07/22 01:54:10;;;;;;;0.75;0.75;;;;;;;;;;5037081;28;20237;-84
2022/07/22 01:56:38;;;;;;;0.77;0.70;;;;;;;;;;5036470;28;20309;-84
2022/07/22 01:59:07;;;;;;;0.50;0.50;;;;;;;;;;5036651;28;20670;-83
2022/07/22 02:01:35;;;;;;;0.52;0.52;;;;;;;;;;5037200;28;20214;-84
2022/07/22 02:04:02;;;;;;;0.60;0.60;;;;;;;;;;5037623;28;20731;-85
2022/07/22 02:06:31;;;;;;;0.43;0.43;;;;;;;;;;5036653;28;20225;-84
2022/07/22 02:08:58;;;;;;;0.52;0.52;;;;;;;;;;5036531;28;20658;-83
2022/07/22 02:11:26;;;;;;;0.52;0.52;;;;;;;;;;5036499;28;20278;-85
2022/07/22 02:13:55;;;;;;;0.77;0.65;;;;;;;;;;5036461;28;20229;-85
2022/07/22 02:16:23;;;;;;;0.95;0.70;;;;;;;;;;5036174;28;20246;-84
2022/07/22 02:18:50;;;;;;;0.68;0.68;;;;;;;;;;5036863;28;20267;-84
2022/07/22 02:21:18;;;;;;;0.73;0.60;;;;;;;;;;5035818;28;20206;-84
2022/07/22 02:23:45;;;;;;;0.95;0.95;;;;;;;;;;5036185;28;20281;-85
2022/07/22 02:26:13;;;;;;;0.70;0.70;;;;;;;;;;5035861;28;20306;-84
2022/07/22 02:28:41;;;;;;;0.57;0.57;;;;;;;;;;5035085;28;20290;-84
2022/07/22 02:31:09;;;;;;;0.70;0.70;;;;;;;;;;5036018;28;20317;-84
2022/07/22 02:33:37;;;;;;;0.80;0.80;;;;;;;;;;5035485;28;20293;-84
2022/07/22 02:36:05;;;;;;;0.68;0.68;;;;;;;;;;5035595;28;20249;-84
2022/07/22 02:38:33;;;;;;;0.50;0.50;;;;;;;;;;5035309;28;20296;-84
2022/07/22 02:41:00;;;;;;;0.60;0.60;;;;;;;;;;5034342;28;20705;-84
2022/07/22 02:43:28;;;;;;;0.52;0.52;;;;;;;;;;5035511;28;20220;-84
2022/07/22 02:45:55;;;;;;;0.60;0.60;;;;;;;;;;5035557;28;20232;-83
2022/07/22 02:48:24;;;;;;;0.70;0.70;;;;;;;;;;5035327;28;20289;-84
2022/07/22 02:50:52;;;;;;;1.45;0.60;;;;;;;;;;5035211;28;20797;-83
2022/07/22 02:53:19;;;;;;;0.70;0.70;;;;;;;;;;5035379;28;20234;-84
2022/07/22 02:55:47;;;;;;;0.70;0.70;;;;;;;;;;5035388;28;20250;-84
2022/07/22 02:58:14;;;;;;;0.90;0.90;;;;;;;;;;5034670;28;20230;-84
2022/07/22 03:00:42;;;;;;;1.00;1.00;;;;;;;;;;5035716;28;20819;-83
2022/07/22 03:03:10;;;;;;;1.38;1.27;;;;;;;;;;5035174;28;20293;-84
2022/07/22 03:05:38;;;;;;;0.95;0.95;;;;;;;;;;5035105;28;20305;-85
2022/07/22 03:08:06;;;;;;;0.93;0.93;;;;;;;;;;5034739;28;20297;-83
2022/07/22 03:10:33;;;;;;;1.00;1.00;;;;;;;;;;5034713;28;20229;-84
2022/07/22 03:13:01;;;;;;;1.30;1.20;;;;;;;;;;5034736;28;20209;-84
2022/07/22 03:15:29;;;;;;;1.63;1.25;;;;;;;;;;5034722;28;20250;-84
2022/07/22 03:17:56;;;;;;;1.10;1.10;;;;;;;;;;5034378;28;20277;-84
2022/07/22 03:20:24;;;;;;;2.75;1.10;;;;;;;;;;5035172;28;20295;-84
2022/07/22 03:22:53;;;;;;;1.50;1.40;;;;;;;;;;5034574;28;20288;-83
2022/07/22 03:25:20;;;;;;;0.90;0.90;;;;;;;;;;5034329;28;20242;-84
2022/07/22 03:27:48;;;;;;;1.38;1.27;;;;;;;;;;5033844;28;20262;-83
2022/07/22 03:30:15;;;;;;;1.48;1.38;;;;;;;;;;5034421;28;20360;-84
2022/07/22 03:32:45;;;;;;;1.90;1.80;;;;;;;;;;5034691;28;20233;-85
2022/07/22 03:35:12;;;;;;;1.63;1.52;;;;;;;;;;5034987;28;20218;-84
2022/07/22 03:37:40;;;;;;;1.75;1.58;;;;;;;;;;5033914;28;20696;-84
2022/07/22 03:40:11;;;;;;;2.30;2.20;;;;;;;;;;5034245;28;20293;-84
2022/07/22 03:42:39;;;;;;;1.83;1.73;;;;;;;;;;5034465;28;20621;-83
2022/07/22 03:45:08;;;;;;;1.67;1.58;;;;;;;;;;5034426;28;20237;-84
2022/07/22 03:47:36;;;;;;;1.67;1.58;;;;;;;;;;5034065;28;20758;-85
2022/07/22 03:50:04;;;;;;;1.98;1.50;;;;;;;;;;5033952;28;20290;-84
2022/07/22 03:52:31;;;;;;;1.75;1.60;;;;;;;;;;5034504;28;20221;-84
2022/07/22 03:54:59;;;;;;;1.85;1.75;;;;;;;;;;5033820;28;20198;-84
2022/07/22 03:57:29;;;;;;;1.67;1.55;;;;;;;;;;5033443;28;20222;-84
2022/07/22 03:59:56;;;;;;;1.80;1.70;;;;;;;;;;5034341;28;20251;-84
2022/07/22 04:02:24;;;;;;;1.70;1.60;;;;;;;;;;5034327;28;20286;-84
2022/07/22 04:04:51;;;;;;;2.58;1.63;;;;;;;;;;5034667;28;20234;-83
2022/07/22 04:07:19;;;;;;;1.70;1.60;;;;;;;;;;5033686;28;20241;-84
2022/07/22 04:09:46;;;;;;;1.85;1.75;;;;;;;;;;5034233;28;20293;-84
2022/07/22 04:12:14;;;;;;;1.50;1.40;;;;;;;;;;5033332;28;20222;-83
2022/07/22 04:14:43;;;;;;;1.70;1.60;;;;;;;;;;5033201;28;20289;-84
2022/07/22 04:17:10;;;;;;;1.67;1.58;;;;;;;;;;5033299;28;20679;-84
2022/07/22 04:19:38;;;;;;;1.40;1.30;;;;;;;;;;5033619;28;20645;-86
2022/07/22 04:22:05;;;;;;;1.55;1.45;;;;;;;;;;5033816;28;20293;-83
2022/07/22 04:24:33;;;;;;;3.90;1.83;;;;;;;;;;5033461;28;20740;-84
2022/07/22 04:27:00;;;;;;;1.60;1.50;;;;;;;;;;5033143;28;20254;-84
2022/07/22 04:29:28;;;;;;;1.83;1.73;;;;;;;;;;5033072;28;20208;-83
2022/07/22 04:31:57;;;;;;;3.08;1.77;;;;;;;;;;5032904;28;20320;-84
2022/07/22 04:34:24;;;;;;;1.77;1.52;;;;;;;;;;5033087;28;20289;-84
2022/07/22 04:36:52;;;;;;;2.15;2.05;;;;;;;;;;5033257;28;20228;-84
2022/07/22 04:39:19;;;;;;;1.48;1.38;;;;;;;;;;5033226;28;20230;-84
2022/07/22 04:41:47;;;;;;;1.90;1.80;;;;;;;;;;5032993;28;20261;-83
2022/07/22 04:44:15;;;;;;;1.75;1.65;;;;;;;;;;5033459;28;20293;-85
2022/07/22 04:46:42;;;;;;;1.25;1.15;;;;;;;;;;5034273;28;20300;-84
2022/07/22 04:49:11;;;;;;;1.70;1.60;;;;;;;;;;5035424;28;20738;-84
2022/07/22 04:51:39;;;;;;;1.90;1.80;;;;;;;;;;5033501;28;20659;-84
2022/07/22 04:54:06;;;;;;;1.77;1.67;;;;;;;;;;5033573;28;20674;-83
2022/07/22 04:56:34;;;;;;;1.95;1.85;;;;;;;;;;5032715;28;20229;-84
2022/07/22 04:59:01;;;;;;;1.80;1.70;;;;;;;;;;5033050;28;20234;-84
2022/07/22 05:01:29;;;;;;;1.98;1.83;;;;;;;;;;5034056;28;20198;-85
2022/07/22 05:03:57;;;;;;;1.17;1.17;;;;;;;;;;5033884;28;20234;-84
2022/07/22 05:06:25;;;;;;;1.30;1.20;;;;;;;;;;5037210;28;20222;-84
2022/07/22 05:08:53;;;;;;;1.27;1.17;;;;;;;;;;5028157;28;20257;-84
2022/07/22 05:11:20;;;;;;;1.10;1.10;;;;;;;;;;5016621;28;20234;-81
2022/07/22 05:13:48;;;;;;;1.35;1.25;;;;;;;;;;5016741;28;20285;-80
2022/07/22 05:16:16;;;;;;;1.10;1.10;;;;;;;;;;5015963;28;20226;-80
2022/07/22 05:18:43;;;;;;;1.00;1.00;;;;;;;;;;5016323;28;20231;-80
2022/07/22 05:21:11;;;;;;;1.70;1.60;;;;;;;;;;5015896;28;20209;-80
2022/07/22 05:23:40;;;;;;;1.20;1.10;;;;;;;;;;5015899;28;20241;-81
2022/07/22 05:26:07;;;;;;;1.33;1.23;;;;;;;;;;5043278;28;20249;-80
2022/07/22 05:28:35;;;;;;;0.93;0.93;;;;;;;;;;5055425;28;20237;-80
2022/07/22 05:31:03;;;;;;;1.33;1.33;;;;;;;;;;5047268;28;20241;-80
2022/07/22 05:33:30;;;;;;;0.90;0.90;;;;;;;;;;5030641;28;20637;-79
2022/07/22 05:35:58;;;;;;;0.90;0.90;;;;;;;;;;5021455;28;20901;-79
2022/07/22 05:38:25;;;;;;;1.02;1.02;;;;;;;;;;5035359;28;20630;-79
2022/07/22 05:40:54;;;;;;;0.85;0.85;;;;;;;;;;5035475;28;20210;-80
2022/07/22 05:43:22;;;;;;;1.55;1.40;;;;;;;;;;5035983;28;20194;-80
2022/07/22 05:45:49;;;;;;;1.35;1.27;;;;;;;;;;5035387;28;20231;-80
2022/07/22 05:48:17;;;;;;;0.93;0.93;;;;;;;;;;5034416;28;20289;-80
2022/07/22 05:50:44;;;;;;;0.95;0.95;;;;;;;;;;5035496;28;20321;-79
2022/07/22 05:53:12;;;;;;;0.90;0.90;;;;;;;;;;5035625;28;20723;-80
2022/07/22 05:55:39;;;;;;;1.40;1.30;;;;;;;;;;5035437;28;20312;-79
2022/07/22 05:58:08;;;;;;;1.20;1.20;;;;;;;;;;5034819;28;20301;-79
2022/07/22 06:00:36;;;;;;;0.95;0.95;;;;;;;;;;5034903;28;20289;-80
2022/07/22 06:03:03;;;;;;;0.90;0.90;;;;;;;;;;5035459;28;20209;-80
2022/07/22 06:05:31;;;;;;;1.58;1.15;;;;;;;;;;5035357;28;20305;-80
2022/07/22 06:07:58;;;;;;;1.52;1.42;;;;;;;;;;5035188;28;20236;-80
2022/07/22 06:10:26;;;;;;;2.03;1.92;;;;;;;;;;5035066;28;20289;-80
2022/07/22 06:12:53;;;;;;;2.00;1.90;;;;;;;;;;5035012;28;20614;-80
2022/07/22 06:15:22;;;;;;;2.10;2.00;;;;;;;;;;5035196;28;20225;-80
2022/07/22 06:17:50;;;;;;;2.28;2.08;;;;;;;;;;5034888;28;20195;-79
2022/07/22 06:20:17;;;;;;;1.73;1.63;;;;;;;;;;5035307;28;20230;-80
2022/07/22 06:22:45;;;;;;;2.50;2.30;;;;;;;;;;5034984;28;20202;-79
2022/07/22 06:25:12;;;;;;;2.13;1.92;;;;;;;;;;5034766;28;20218;-80
2022/07/22 06:27:40;;;;;;;3.95;1.73;;;;;;;;;;5041907;28;20285;-80
2022/07/22 06:30:09;;;;;;;1.70;1.60;;;;;;;;;;5054814;28;20202;-78
2022/07/22 06:32:38;;;;;;;2.25;2.10;;;;;;;;;;5055569;28;20217;-80
2022/07/22 06:35:06;;;;;;;1.73;1.63;;;;;;;;;;5036269;28;20744;-79
2022/07/22 06:37:34;;;;;;;1.52;1.42;;;;;;;;;;5034226;28;20214;-80
2022/07/22 06:40:02;;;;;;;1.40;1.30;;;;;;;;;;5034191;28;20241;-79
2022/07/22 06:42:29;;;;;;;1.60;1.50;;;;;;;;;;5034430;28;20198;-79
2022/07/22 06:44:57;;;;;;;1.35;1.25;;;;;;;;;;5034878;28;20202;-79
2022/07/22 06:47:24;;;;;;;1.15;1.15;;;;;;;;;;5034577;28;20230;-80
2022/07/22 06:49:53;;;;;;;1.50;1.40;;;;;;;;;;5034483;28;20294;-80
2022/07/22 06:52:20;;;;;;;1.10;1.10;;;;;;;;;;5034013;28;20273;-80
2022/07/22 06:54:49;;;;;;;1.00;1.00;;;;;;;;;;5034276;28;20198;-80
2022/07/22 06:57:16;;;;;;;1.20;1.20;;;;;;;;;;5034202;28;20261;-80
2022/07/22 06:59:44;;;;;;;1.05;1.05;;;;;;;;;;5034082;28;20596;-79
2022/07/22 07:02:11;;;;;;;1.27;1.20;;;;;;;;;;5034060;28;20220;-80
2022/07/22 07:04:39;;;;;;;1.20;1.20;;;;;;;;;;5033880;28;20213;-80
2022/07/22 07:07:08;;;;;;;1.30;1.20;;;;;;;;;;5033935;28;20771;-79
2022/07/22 07:09:36;;;;;;;1.48;1.38;;;;;;;;;;5034463;28;20206;-80
2022/07/22 07:12:04;;;;;;;1.63;1.52;;;;;;;;;;5034373;28;20226;-83
2022/07/22 07:14:31;;;;;;;1.50;1.40;;;;;;;;;;5034323;28;20281;-80
2022/07/22 07:16:59;;;;;;;2.13;1.88;;;;;;;;;;5033563;28;20304;-80
2022/07/22 07:19:26;;;;;;;1.65;1.55;;;;;;;;;;5033606;28;20203;-80
2022/07/22 07:21:54;;;;;;;2.47;2.28;;;;;;;;;;5034319;28;20202;-79
2022/07/22 07:24:23;;;;;;;2.42;2.28;;;;;;;;;;5034091;28;20202;-80
2022/07/22 07:26:51;;;;;;;1.88;1.77;;;;;;;;;;5033511;28;20246;-80
2022/07/22 07:29:18;;;;;;;2.05;1.95;;;;;;;;;;5054236;28;20581;-80
2022/07/22 07:31:46;;;;;;;3.10;2.90;;;;;;;;;;5053323;28;20239;-80
2022/07/22 07:34:13;;;;;;;1.95;1.85;;;;;;;;;;5042503;28;20226;-80
2022/07/22 07:36:41;;;;;;;2.50;2.30;;;;;;;;;;5033697;28;20309;-80
2022/07/22 07:39:08;;;;;;;2.00;1.70;;;;;;;;;;5034440;28;20277;-82
2022/07/22 07:41:37;;;;;;;2.55;2.35;;;;;;;;;;5034416;28;20241;-81
2022/07/22 07:44:05;;;;;;;2.40;2.20;;;;;;;;;;5033685;28;20230;-79
2022/07/22 07:46:32;;;;;;;2.50;2.30;;;;;;;;;;5033863;28;20276;-81
2022/07/22 07:49:00;;;;;;;1.35;1.33;;;;;;;;;;5033639;28;20627;-79
2022/07/22 07:51:27;;;;;;;1.60;1.50;;;;;;;;;;5033728;28;20293;-79
2022/07/22 07:53:55;;;;;;;2.03;1.83;;;;;;;;;;5033492;28;20236;-80
2022/07/22 07:56:22;;;;;;;1.92;1.83;;;;;;;;;;5033629;28;20317;-80
2022/07/22 07:58:51;;;;;;;1.95;1.85;;;;;;;;;;5034052;28;20635;-79
2022/07/22 08:01:19;;;;;;;2.53;2.33;;;;;;;;;;5033565;28;20240;-79
2022/07/22 08:03:46;;;;;;;2.03;1.92;;;;;;;;;;5033830;28;20700;-79
2022/07/22 08:06:14;;;;;;;1.40;1.30;;;;;;;;;;5033803;28;20253;-78
2022/07/22 08:08:41;;;;;;;2.03;1.92;;;;;;;;;;5032790;28;20293;-79
2022/07/22 08:11:09;;;;;;;1.85;1.75;;;;;;;;;;5033010;28;20207;-80
2022/07/22 08:13:36;;;;;;;1.30;1.20;;;;;;;;;;5033034;28;20265;-79
2022/07/22 08:16:06;;;;;;;0.90;0.90;;;;;;;;;;5033142;28;20317;-79
2022/07/22 08:18:33;;;;;;;1.42;1.33;;;;;;;;;;5032735;28;20693;-80
2022/07/22 08:21:01;;;;;;;2.25;1.58;;;;;;;;;;5033370;28;20293;-80
2022/07/22 08:23:29;;;;;;;1.60;1.50;;;;;;;;;;5032390;28;20196;-79
2022/07/22 08:25:56;;;;;;;1.58;1.48;;;;;;;;;;5033138;28;20226;-79
2022/07/22 08:28:24;;;;;;;1.48;1.38;;;;;;;;;;5046492;28;20212;-79
2022/07/22 08:30:51;;;;;;;1.77;1.67;;;;;;;;;;5052514;28;20252;-80
2022/07/22 08:33:20;;;;;;;1.60;1.50;;;;;;;;;;5048702;28;20226;-79
2022/07/22 08:35:48;;;;;;;1.55;1.45;;;;;;;;;;5032654;28;20309;-79
2022/07/22 08:38:15;;;;;;;2.00;1.90;;;;;;;;;;5032454;28;20681;-79
2022/07/22 08:40:43;;;;;;;1.50;1.40;;;;;;;;;;5036511;28;20289;-79
2022/07/22 08:43:10;;;;;;;1.80;1.70;;;;;;;;;;5037335;28;20245;-79
2022/07/22 08:45:40;;;;;;;1.00;1.00;;;;;;;;;;5037323;28;20224;-80
2022/07/22 08:48:07;;;;;;;1.75;1.65;;;;;;;;;;5037038;28;20296;-79
2022/07/22 08:50:36;;;;;;;2.50;2.40;;;;;;;;;;5036398;28;20242;-79
2022/07/22 08:53:04;;;;;;;1.73;1.63;;;;;;;;;;5036491;28;20241;-80
2022/07/22 08:55:32;;;;;;;1.75;1.65;;;;;;;;;;5036425;28;20573;-80
2022/07/22 08:57:59;;;;;;;2.50;2.35;;;;;;;;;;5036078;28;20202;-80
2022/07/22 09:00:27;;;;;;;2.22;2.03;;;;;;;;;;5036395;28;20272;-79
2022/07/22 09:02:54;;;;;;;2.20;2.10;;;;;;;;;;5036354;28;20765;-79
2022/07/22 09:05:22;;;;;;;1.98;1.88;;;;;;;;;;5036190;28;20257;-79
2022/07/22 09:07:51;;;;;;;2.35;2.20;;;;;;;;;;5036353;28;20249;-79
2022/07/22 09:10:20;;;;;;;2.42;1.75;;;;;;;;;;5017032;28;20649;-79
2022/07/22 09:12:58;;;;;;;2.42;2.33;;;;;;;;;;5016420;28;20286;-79
2022/07/22 09:15:30;;;;;;;2.50;2.30;;;;;;;;;;5016795;28;20234;-79
2022/07/22 09:17:59;;;;;;;2.20;2.10;;;;;;;;;;5016611;28;20199;-79
2022/07/22 09:20:27;;;;;;;3.20;2.10;;;;;;;;;;5016976;28;20293;-79
2022/07/22 09:22:57;;;;;;;2.08;1.98;;;;;;;;;;5016563;28;20260;-80
2022/07/22 09:25:29;;;;;;;2.10;2.00;;;;;;;;;;5016460;28;20769;-80
2022/07/22 09:28:12;;;;;;;2.20;2.10;;;;;;;;;;5036587;28;20571;-80
2022/07/22 09:30:43;;;;;;;2.47;2.25;;;;;;;;;;5056431;28;20289;-77
2022/07/22 09:33:11;;;;;;;2.85;2.17;;;;;;;;;;5053145;28;20648;-79
2022/07/22 09:35:39;;;;;;;2.63;2.42;;;;;;;;;;5036007;28;20230;-79
2022/07/22 09:38:10;;;;;;;2.22;2.13;;;;;;;;;;5035734;28;20207;-80
2022/07/22 09:40:40;;;;;;;2.30;2.17;;;;;;;;;;5036099;28;20296;-78
2022/07/22 09:43:11;;;;;;;2.67;2.50;;;;;;;;;;5035849;28;20659;-79
2022/07/22 09:45:48;;;;;;;2.13;2.00;;;;;;;;;;5035643;28;20226;-79
2022/07/22 09:48:17;;;;;;;5.35;2.33;;;;;;;;;;5035309;28;20198;-79
2022/07/22 09:50:44;;;;;;;3.58;2.95;;;;;;;;;;5035054;28;20210;-79
2022/07/22 09:53:14;;;;;;;2.00;1.90;;;;;;;;;;5033321;28;20645;-79
2022/07/22 09:55:42;;;;;;;2.63;2.42;;;;;;;;;;5042817;28;20214;-79
2022/07/22 09:58:11;;;;;;;2.97;2.05;;;;;;;;;;5053856;28;20288;-79
2022/07/22 10:00:40;;;;;;;2.10;2.00;;;;;;;;;;5055118;28;20201;-79
2022/07/22 10:03:12;;;;;;;2.30;2.20;;;;;;;;;;5053162;28;20640;-77
2022/07/22 10:05:42;;;;;;;3.65;3.33;;;;;;;;;;5034910;28;20214;-79
2022/07/22 10:08:11;;;;;;;2.58;2.38;;;;;;;;;;5034982;28;20212;-78
2022/07/22 10:10:40;;;;;;;2.83;2.63;;;;;;;;;;5035127;28;20690;-78
2022/07/22 10:13:09;;;;;;;3.13;2.90;;;;;;;;;;5035077;28;20242;-78
2022/07/22 10:15:38;;;;;;;2.30;2.20;;;;;;;;;;5034588;28;20786;-79
2022/07/22 10:18:08;;;;;;;2.65;2.45;;;;;;;;;;5034770;28;20206;-78
2022/07/22 10:20:37;;;;;;;2.60;2.40;;;;;;;;;;5034981;28;20209;-78
2022/07/22 10:23:06;;;;;;;2.80;2.42;;;;;;;;;;5034703;28;20204;-78
2022/07/22 10:25:48;;;;;;;9.85;5.15;;;;;;;;;;5034390;28;20324;-78
2022/07/22 10:28:24;;;;;;;2.28;2.17;;;;;;;;;;5046748;28;20204;-78
2022/07/22 10:30:52;;;;;;;3.38;3.08;;;;;;;;;;5054506;28;20240;-78
2022/07/22 10:33:21;;;;;;;2.53;2.33;;;;;;;;;;5050741;28;20241;-78
2022/07/22 10:35:59;;;;;;;2.58;2.38;;;;;;;;;;5034339;28;20226;-78
2022/07/22 10:38:28;;;;;;;2.70;2.50;;;;;;;;;;5033774;28;20202;-78
2022/07/22 10:41:00;;;;;;;2.10;2.00;;;;;;;;;;5034537;28;20229;-78
2022/07/22 10:43:29;;;;;;;2.03;1.92;;;;;;;;;;5034095;28;20198;-78
2022/07/22 10:45:58;;;;;;;2.22;2.08;;;;;;;;;;5034221;28;20214;-79
2022/07/22 10:48:46;;;;;;;2.17;2.08;;;;;;;;;;5033981;28;20204;-80
2022/07/22 10:51:15;;;;;;;1.85;1.75;;;;;;;;;;5034178;28;20665;-78
2022/07/22 10:53:46;;;;;;;2.50;2.30;;;;;;;;;;5034576;28;20642;-79
2022/07/22 10:56:20;;;;;;;3.17;2.75;;;;;;;;;;5034144;28;20313;-79
2022/07/22 10:58:57;;;;;;;2.55;2.35;;;;;;;;;;5033560;28;20685;-78
2022/07/22 11:01:29;;;;;;;4.40;2.80;;;;;;;;;;5033263;28;20261;-78
2022/07/22 11:03:57;;;;;;;2.25;2.10;;;;;;;;;;5033790;28;20210;-78
2022/07/22 11:06:31;;;;;;;2.83;2.60;;;;;;;;;;5033420;28;20716;-78
2022/07/22 11:09:00;;;;;;;3.17;2.88;;;;;;;;;;5034007;28;20233;-79
2022/07/22 11:11:42;;;;;;;2.10;2.00;;;;;;;;;;5034319;28;20200;-78
2022/07/22 11:14:18;;;;;;;1.95;1.85;;;;;;;;;;5034391;28;20213;-79
2022/07/22 11:16:48;;;;;;;2.53;2.33;;;;;;;;;;5033635;28;20229;-78
2022/07/22 11:19:15;;;;;;;2.50;2.30;;;;;;;;;;5033522;28;20672;-79
2022/07/22 11:21:43;;;;;;;2.55;2.25;;;;;;;;;;5033685;28;20289;-78
2022/07/22 11:24:10;;;;;;;1.77;1.67;;;;;;;;;;5033191;28;20293;-78
2022/07/22 11:26:44;;;;;;;3.30;2.35;;;;;;;;;;5033371;28;20221;-78
2022/07/22 11:29:13;;;;;;;2.95;2.75;;;;;;;;;;5013869;28;20689;-78
2022/07/22 11:31:40;;;;;;;2.25;2.15;;;;;;;;;;5013743;28;20245;-78
2022/07/22 11:34:10;;;;;;;2.03;1.92;;;;;;;;;;5023669;28;20669;-78
2022/07/22 11:36:39;;;;;;;2.22;2.10;;;;;;;;;;5032912;28;20226;-78
2022/07/22 11:39:08;;;;;;;2.25;2.05;;;;;;;;;;5033126;28;20332;-78
2022/07/22 11:41:36;;;;;;;2.20;2.10;;;;;;;;;;5033416;28;20209;-79
2022/07/22 11:44:06;;;;;;;2.30;2.20;;;;;;;;;;5033417;28;20297;-79
2022/07/22 11:46:38;;;;;;;2.45;2.28;;;;;;;;;;5033071;28;20228;-78
2022/07/22 11:49:09;;;;;;;2.10;1.95;;;;;;;;;;5031720;28;20198;-79
2022/07/22 11:51:38;;;;;;;1.60;1.50;;;;;;;;;;5027688;28;20205;-78
2022/07/22 11:54:07;;;;;;;2.35;1.98;;;;;;;;;;5020980;28;20203;-78
2022/07/22 11:56:35;;;;;;;1.70;1.60;;;;;;;;;;5032727;28;20293;-78
2022/07/22 11:59:04;;;;;;;2.15;2.05;;;;;;;;;;5033091;28;20298;-78
2022/07/22 12:01:37;;;;;;;2.47;2.28;;;;;;;;;;5032758;28;20232;-78
2022/07/22 12:04:08;;;;;;;3.15;2.17;;;;;;;;;;5032824;28;20300;-78
2022/07/22 12:06:38;;;;;;;2.50;2.30;;;;;;;;;;5032724;28;20253;-79
2022/07/22 12:09:08;;;;;;;2.00;1.90;;;;;;;;;;5033116;28;20215;-79
2022/07/22 12:11:38;;;;;;;2.00;1.90;;;;;;;;;;5032958;28;20224;-78
2022/07/22 12:14:11;;;;;;;2.25;2.05;;;;;;;;;;5032662;28;20285;-78
2022/07/22 12:16:41;;;;;;;1.98;1.88;;;;;;;;;;5032761;28;20230;-78
2022/07/22 12:19:11;;;;;;;2.15;2.05;;;;;;;;;;5032681;28;20237;-78
2022/07/22 12:21:52;;;;;;;2.20;2.10;;;;;;;;;;5032769;28;20198;-79
2022/07/22 12:24:29;;;;;;;2.67;2.47;;;;;;;;;;5032322;28;20213;-78
2022/07/22 12:27:00;;;;;;;2.38;2.28;;;;;;;;;;5033733;28;20228;-78
2022/07/22 12:29:30;;;;;;;2.22;2.13;;;;;;;;;;5052476;28;20685;-78
2022/07/22 12:32:03;;;;;;;2.13;2.03;;;;;;;;;;5052600;28;20205;-79
2022/07/22 12:34:35;;;;;;;2.38;2.17;;;;;;;;;;5038809;28;20202;-79
2022/07/22 12:37:14;;;;;;;2.72;2.53;;;;;;;;;;5032882;28;20299;-78
2022/07/22 12:39:52;;;;;;;2.33;2.03;;;;;;;;;;5033272;28;20202;-78
2022/07/22 12:42:20;;;;;;;3.00;2.38;;;;;;;;;;5033206;28;20270;-78
2022/07/22 12:44:54;;;;;;;2.30;2.20;;;;;;;;;;5036321;28;20241;-79
2022/07/22 12:47:46;;;;;;;2.25;2.15;;;;;;;;;;5035875;28;20581;-79
2022/07/22 12:50:22;;;;;;;2.70;2.58;;;;;;;;;;5035720;28;20643;-78
2022/07/22 12:52:51;;;;;;;2.20;2.10;;;;;;;;;;5034921;28;20288;-79
2022/07/22 12:55:19;;;;;;;2.10;2.00;;;;;;;;;;5033532;28;20317;-79
2022/07/22 12:57:46;;;;;;;2.45;2.35;;;;;;;;;;5034758;28;20218;-78
2022/07/22 13:00:19;;;;;;;2.47;2.22;;;;;;;;;;5034614;28;20286;-78
2022/07/22 13:02:48;;;;;;;2.83;2.35;;;;;;;;;;5032756;28;20737;-79
2022/07/22 13:05:16;;;;;;;2.47;1.70;;;;;;;;;;5032424;28;20313;-79
2022/07/22 13:07:44;;;;;;;2.70;2.53;;;;;;;;;;5031949;28;20210;-79
2022/07/22 13:10:13;;;;;;;2.00;1.90;;;;;;;;;;5032212;28;20202;-78
2022/07/22 13:12:41;;;;;;;2.28;2.08;;;;;;;;;;5032642;28;20289;-79
2022/07/22 13:15:10;;;;;;;2.08;1.98;;;;;;;;;;5032262;28;20746;-79
2022/07/22 13:17:38;;;;;;;2.45;2.10;;;;;;;;;;5032022;28;20224;-78
2022/07/22 13:20:09;;;;;;;2.22;1.80;;;;;;;;;;5032160;28;20206;-78
2022/07/22 13:22:37;;;;;;;1.83;1.73;;;;;;;;;;5032302;28;20289;-78
2022/07/22 13:25:06;;;;;;;1.50;1.40;;;;;;;;;;5032995;28;20232;-78
2022/07/22 13:27:34;;;;;;;1.80;1.70;;;;;;;;;;5041985;28;20193;-78
2022/07/22 13:30:01;;;;;;;2.65;1.88;;;;;;;;;;5055755;28;20205;-79
2022/07/22 13:32:29;;;;;;;2.28;2.17;;;;;;;;;;5055777;28;20771;-79
2022/07/22 13:34:56;;;;;;;1.60;1.60;;;;;;;;;;5038600;28;20206;-78
2022/07/22 13:37:25;;;;;;;1.80;1.70;;;;;;;;;;5035331;28;20253;-78
2022/07/22 13:39:53;;;;;;;2.90;2.70;;;;;;;;;;5036140;28;20203;-79
2022/07/22 13:42:21;;;;;;;3.72;2.45;;;;;;;;;;5035338;28;20202;-78
2022/07/22 13:44:51;;;;;;;3.15;2.95;;;;;;;;;;5035878;28;20281;-79
2022/07/22 13:47:19;;;;;;;2.92;2.30;;;;;;;;;;5035337;28;20209;-79
2022/07/22 13:49:48;;;;;;;2.08;1.98;;;;;;;;;;5035387;28;20214;-78
2022/07/22 13:52:18;;;;;;;2.20;2.10;;;;;;;;;;5035174;28;20280;-78
2022/07/22 13:54:47;;;;;;;1.80;1.70;;;;;;;;;;5035614;28;20214;-78
2022/07/22 13:57:15;;;;;;;2.40;2.30;;;;;;;;;;5035456;28;20321;-78
2022/07/22 13:59:42;;;;;;;1.85;1.75;;;;;;;;;;5035325;28;20667;-79
2022/07/22 14:02:10;;;;;;;1.65;1.55;;;;;;;;;;5034880;28;20765;-78
2022/07/22 14:04:38;;;;;;;2.58;2.35;;;;;;;;;;5020930;28;20242;-79
2022/07/22 14:07:05;;;;;;;2.47;2.28;;;;;;;;;;5015343;28;20746;-79
2022/07/22 14:09:33;;;;;;;1.80;1.70;;;;;;;;;;5015490;28;20235;-78
2022/07/22 14:12:01;;;;;;;2.17;2.08;;;;;;;;;;5015642;28;20239;-78
2022/07/22 14:14:29;;;;;;;1.80;1.70;;;;;;;;;;5015741;28;20257;-78
2022/07/22 14:16:56;;;;;;;1.98;1.88;;;;;;;;;;5014521;28;20255;-78
2022/07/22 14:19:24;;;;;;;1.50;1.40;;;;;;;;;;5015499;28;20280;-79
2022/07/22 14:21:51;;;;;;;2.22;2.13;;;;;;;;;;5015410;28;20238;-79
2022/07/22 14:24:20;;;;;;;1.70;1.60;;;;;;;;;;5025031;28;20290;-79
2022/07/22 14:26:47;;;;;;;2.05;1.95;;;;;;;;;;5034880;28;20218;-81
2022/07/22 14:29:16;;;;;;;2.22;2.03;;;;;;;;;;5054740;28;20213;-79
2022/07/22 14:31:46;;;;;;;2.92;2.72;;;;;;;;;;5054996;28;20292;-78
2022/07/22 14:34:13;;;;;;;2.33;2.22;;;;;;;;;;5043921;28;20202;-78
2022/07/22 14:36:41;;;;;;;2.05;1.95;;;;;;;;;;5033189;28;20254;-79
2022/07/22 14:39:09;;;;;;;2.10;2.00;;;;;;;;;;5034005;28;20238;-78
2022/07/22 14:41:36;;;;;;;1.67;1.58;;;;;;;;;;5034615;28;20246;-78
2022/07/22 14:44:04;;;;;;;1.92;1.83;;;;;;;;;;5034251;28;20209;-78
2022/07/22 14:46:33;;;;;;;1.80;1.70;;;;;;;;;;5034374;28;20309;-78
2022/07/22 14:49:01;;;;;;;2.30;2.20;;;;;;;;;;5034698;28;20210;-78
2022/07/22 14:51:28;;;;;;;2.20;2.10;;;;;;;;;;5034784;28;20260;-78